Time;durP1;ratioP1;P1;durP2;ratioP2;P2;SDS_P1;SDS_P2;PMS_P1;PMS_P2;Temp;Humidity;BMP_temperature;BMP_pressure;BME280_temperature;BME280_humidity;BME280_pressure;Samples;Min_cycle;Max_cycle;Signal;HPM_P1;HPM_P2
2023/07/19 00:00:43;;;;;;;9.05;4.30;;;25.10;70.50;;;;;;4994136;28;20430;-74
2023/07/19 00:03:08;;;;;;;6.30;4.07;;;25.00;70.30;;;;;;4994234;28;20112;-73
2023/07/19 00:05:34;;;;;;;7.13;4.47;;;25.00;70.20;;;;;;4993624;28;20045;-72
2023/07/19 00:08:02;;;;;;;5.75;4.03;;;25.00;70.20;;;;;;4993838;28;20042;-73
2023/07/19 00:10:27;;;;;;;7.03;4.25;;;25.00;70.10;;;;;;4993718;28;20105;-73
2023/07/19 00:12:53;;;;;;;11.13;4.70;;;25.00;70.10;;;;;;4993861;28;20113;-73
2023/07/19 00:15:19;;;;;;;8.68;4.28;;;25.00;69.80;;;;;;4994061;28;20048;-73
2023/07/19 00:17:44;;;;;;;4.50;3.92;;;25.00;69.70;;;;;;4993657;28;20032;-72
2023/07/19 00:20:14;;;;;;;7.45;4.25;;;25.00;69.60;;;;;;4993899;28;20038;-73
2023/07/19 00:22:39;;;;;;;11.45;3.55;;;25.00;69.60;;;;;;4993199;28;20378;-73
2023/07/19 00:25:06;;;;;;;5.97;3.95;;;25.00;69.50;;;;;;4994156;28;20026;-73
2023/07/19 00:27:31;;;;;;;7.65;4.47;;;25.00;70.00;;;;;;4993177;28;20429;-73
2023/07/19 00:29:58;;;;;;;6.55;4.45;;;25.00;69.60;;;;;;4994013;28;20173;-73
2023/07/19 00:32:23;;;;;;;6.50;3.97;;;24.90;69.60;;;;;;4993745;28;20030;-73
2023/07/19 00:34:49;;;;;;;7.18;4.40;;;24.90;69.90;;;;;;4993089;28;20521;-73
2023/07/19 00:37:14;;;;;;;7.78;4.32;;;24.90;69.90;;;;;;4994076;28;20022;-73
2023/07/19 00:39:41;;;;;;;6.03;3.53;;;24.90;70.00;;;;;;4993204;28;20422;-72
2023/07/19 00:42:07;;;;;;;8.77;3.40;;;24.90;69.80;;;;;;4993610;28;20089;-74
2023/07/19 00:44:33;;;;;;;6.25;3.85;;;24.80;69.60;;;;;;4993192;28;20058;-73
2023/07/19 00:47:01;;;;;;;10.15;4.05;;;24.80;69.50;;;;;;4993797;28;20430;-73
2023/07/19 00:49:27;;;;;;;8.20;3.75;;;24.90;69.20;;;;;;4999829;28;20030;-73
2023/07/19 00:51:53;;;;;;;5.70;3.75;;;24.80;68.90;;;;;;5012402;28;20553;-73
2023/07/19 00:54:21;;;;;;;7.05;3.70;;;24.80;68.90;;;;;;5013104;28;20112;-72
2023/07/19 00:56:47;;;;;;;6.05;3.75;;;24.80;68.80;;;;;;5012595;28;20040;-73
2023/07/19 00:59:14;;;;;;;6.95;3.50;;;24.90;68.90;;;;;;5013059;28;20037;-74
2023/07/19 01:01:44;;;;;;;7.22;3.70;;;24.90;68.80;;;;;;5013743;28;20195;-73
2023/07/19 01:04:10;;;;;;;6.47;3.57;;;24.90;68.80;;;;;;5019513;28;20026;-73
2023/07/19 01:06:36;;;;;;;8.07;3.85;;;24.90;68.60;;;;;;5018793;28;20458;-72
2023/07/19 01:09:02;;;;;;;5.43;3.45;;;24.90;68.10;;;;;;5018406;28;20030;-73
2023/07/19 01:11:28;;;;;;;5.50;3.60;;;24.90;68.10;;;;;;5019417;28;20083;-73
2023/07/19 01:13:54;;;;;;;7.75;3.90;;;24.90;68.20;;;;;;5019069;28;20108;-73
2023/07/19 01:16:20;;;;;;;7.35;4.25;;;24.90;67.80;;;;;;5019677;28;20041;-72
2023/07/19 01:18:47;;;;;;;6.82;3.60;;;24.90;67.40;;;;;;5018973;28;20030;-73
2023/07/19 01:21:13;;;;;;;7.22;3.33;;;24.90;67.20;;;;;;5019349;28;20025;-72
2023/07/19 01:23:39;;;;;;;6.68;3.53;;;24.90;66.80;;;;;;5018870;28;20159;-73
2023/07/19 01:26:05;;;;;;;6.18;3.60;;;24.90;66.90;;;;;;5018069;28;20032;-73
2023/07/19 01:28:31;;;;;;;8.63;3.60;;;24.90;66.80;;;;;;5019214;28;20112;-72
2023/07/19 01:30:56;;;;;;;6.57;3.70;;;24.90;66.80;;;;;;5019256;28;20093;-73
2023/07/19 01:33:22;;;;;;;5.30;3.40;;;24.90;66.70;;;;;;5018936;28;20030;-73
2023/07/19 01:35:47;;;;;;;8.75;3.63;;;24.90;66.60;;;;;;5019041;28;20505;-73
2023/07/19 01:38:13;;;;;;;6.95;3.80;;;24.90;66.50;;;;;;5019356;28;20034;-73
2023/07/19 01:40:39;;;;;;;8.50;3.92;;;24.90;66.50;;;;;;5018812;28;20030;-73
2023/07/19 01:43:04;;;;;;;7.88;4.43;;;24.90;66.60;;;;;;5018096;28;20459;-73
2023/07/19 01:45:30;;;;;;;5.50;3.65;;;24.90;66.80;;;;;;5018740;28;20134;-73
2023/07/19 01:47:55;;;;;;;12.55;3.78;;;24.90;66.30;;;;;;5018293;28;20083;-73
2023/07/19 01:50:21;;;;;;;7.32;4.15;;;24.90;65.70;;;;;;5019161;28;20033;-73
2023/07/19 01:52:48;;;;;;;5.72;3.28;;;24.90;65.40;;;;;;5018515;28;20390;-73
2023/07/19 01:55:14;;;;;;;8.63;3.70;;;24.90;65.50;;;;;;5002543;28;20022;-73
2023/07/19 01:57:39;;;;;;;4.95;3.35;;;24.80;65.50;;;;;;4998932;28;20475;-73
2023/07/19 02:00:06;;;;;;;11.13;4.20;;;24.80;65.60;;;;;;4999243;28;20065;-73
2023/07/19 02:02:31;;;;;;;7.53;3.38;;;24.80;65.70;;;;;;4999620;28;20203;-73
2023/07/19 02:04:57;;;;;;;9.48;3.47;;;24.80;65.50;;;;;;4998693;28;20140;-73
2023/07/19 02:07:22;;;;;;;7.35;3.60;;;24.80;65.40;;;;;;4999463;28;20050;-73
2023/07/19 02:09:48;;;;;;;9.18;3.22;;;24.80;65.40;;;;;;4998695;28;20031;-73
2023/07/19 02:12:14;;;;;;;5.45;3.25;;;24.80;65.50;;;;;;4999250;28;20037;-73
2023/07/19 02:14:39;;;;;;;7.55;3.47;;;24.90;65.40;;;;;;4995490;28;20034;-73
2023/07/19 02:17:05;;;;;;;5.60;3.55;;;24.90;65.30;;;;;;4996258;28;20034;-73
2023/07/19 02:19:31;;;;;;;7.82;3.58;;;24.80;65.20;;;;;;4996132;28;20093;-73
2023/07/19 02:21:56;;;;;;;6.10;3.45;;;24.80;65.30;;;;;;4995737;28;20089;-73
2023/07/19 02:24:22;;;;;;;6.88;3.65;;;24.80;65.40;;;;;;4995775;28;20029;-72
2023/07/19 02:26:47;;;;;;;6.35;3.10;;;24.80;65.60;;;;;;4995359;28;20463;-73
2023/07/19 02:29:13;;;;;;;7.47;3.75;;;24.80;65.70;;;;;;4995701;28;20121;-73
2023/07/19 02:31:39;;;;;;;9.77;3.75;;;24.80;65.70;;;;;;4995600;28;20443;-73
2023/07/19 02:34:06;;;;;;;9.27;3.72;;;24.80;65.60;;;;;;4995971;28;20033;-73
2023/07/19 02:36:34;;;;;;;6.97;3.65;;;24.70;65.80;;;;;;4995850;28;20064;-73
2023/07/19 02:39:03;;;;;;;7.55;3.80;;;24.70;65.70;;;;;;4995285;28;20038;-73
2023/07/19 02:41:29;;;;;;;7.72;3.70;;;24.70;65.80;;;;;;4995743;28;20034;-73
2023/07/19 02:43:55;;;;;;;5.50;3.17;;;24.70;66.00;;;;;;4977871;28;20037;-73
2023/07/19 02:46:21;;;;;;;5.80;3.40;;;24.70;65.80;;;;;;4981829;28;20022;-73
2023/07/19 02:48:46;;;;;;;9.50;4.68;;;24.70;65.50;;;;;;4995002;28;20042;-73
2023/07/19 02:51:12;;;;;;;7.80;3.25;;;24.70;65.40;;;;;;4995281;28;20109;-73
2023/07/19 02:53:38;;;;;;;6.80;3.50;;;24.70;65.50;;;;;;4995060;28;20108;-75
2023/07/19 02:56:04;;;;;;;7.70;3.83;;;24.70;64.90;;;;;;4995476;28;20030;-73
2023/07/19 02:58:29;;;;;;;10.48;4.00;;;24.70;64.80;;;;;;4995359;28;20029;-72
2023/07/19 03:00:55;;;;;;;5.50;3.58;;;24.70;64.80;;;;;;4977751;28;20368;-73
2023/07/19 03:03:21;;;;;;;6.45;3.15;;;24.70;64.70;;;;;;4995613;28;20026;-73
2023/07/19 03:05:46;;;;;;;6.68;3.10;;;24.70;64.70;;;;;;4994395;28;20046;-73
2023/07/19 03:08:12;;;;;;;6.07;3.20;;;24.80;64.80;;;;;;4977890;28;20027;-72
2023/07/19 03:10:39;;;;;;;6.65;3.50;;;24.80;65.00;;;;;;4977663;28;20121;-72
2023/07/19 03:13:04;;;;;;;6.68;3.33;;;24.70;65.20;;;;;;4995131;28;20026;-73
2023/07/19 03:15:32;;;;;;;6.53;3.53;;;24.70;65.50;;;;;;4994914;28;20037;-73
2023/07/19 03:18:02;;;;;;;10.75;3.20;;;24.70;65.80;;;;;;4994683;28;20045;-72
2023/07/19 03:20:29;;;;;;;4.68;3.45;;;24.70;66.10;;;;;;4994975;28;20034;-73
2023/07/19 03:22:55;;;;;;;7.57;3.28;;;24.60;66.30;;;;;;4994550;28;20038;-73
2023/07/19 03:25:21;;;;;;;9.10;3.80;;;24.60;66.30;;;;;;4994782;28;20031;-72
2023/07/19 03:27:47;;;;;;;5.93;3.50;;;24.60;66.40;;;;;;4994174;28;20027;-73
2023/07/19 03:30:14;;;;;;;4.43;3.40;;;24.60;66.60;;;;;;4994851;28;20033;-73
2023/07/19 03:32:39;;;;;;;9.05;3.90;;;24.50;66.60;;;;;;4994790;28;20088;-72
2023/07/19 03:35:06;;;;;;;7.07;3.67;;;24.50;66.80;;;;;;4994828;28;20105;-73
2023/07/19 03:37:31;;;;;;;6.90;3.60;;;24.50;67.00;;;;;;4994576;28;20030;-73
2023/07/19 03:39:57;;;;;;;6.78;3.33;;;24.50;67.20;;;;;;4994189;28;20044;-73
2023/07/19 03:42:22;;;;;;;8.20;3.60;;;24.50;67.30;;;;;;4994603;28;20418;-72
2023/07/19 03:44:48;;;;;;;7.18;3.97;;;24.50;67.40;;;;;;4993836;28;20156;-73
2023/07/19 03:47:14;;;;;;;7.03;3.20;;;24.50;67.40;;;;;;4994653;28;20023;-73
2023/07/19 03:49:39;;;;;;;7.00;3.80;;;24.50;67.70;;;;;;4994472;28;20506;-73
2023/07/19 03:52:05;;;;;;;7.82;3.92;;;24.40;67.80;;;;;;4994131;28;20037;-73
2023/07/19 03:54:31;;;;;;;10.25;4.63;;;24.50;68.00;;;;;;5006736;28;20030;-73
2023/07/19 03:56:57;;;;;;;7.65;4.38;;;24.40;68.00;;;;;;5013275;28;20110;-73
2023/07/19 03:59:22;;;;;;;10.50;3.83;;;24.30;68.30;;;;;;5013666;28;20026;-72
2023/07/19 04:01:48;;;;;;;8.02;4.80;;;24.30;68.60;;;;;;5013050;28;20033;-73
2023/07/19 04:04:13;;;;;;;7.00;3.97;;;24.30;68.90;;;;;;5013810;28;20382;-73
2023/07/19 04:06:39;;;;;;;9.05;4.10;;;24.30;69.10;;;;;;5013359;28;20049;-72
2023/07/19 04:09:05;;;;;;;16.55;4.60;;;24.30;69.40;;;;;;5013329;28;20373;-72
2023/07/19 04:11:30;;;;;;;6.15;4.05;;;24.30;69.60;;;;;;5013387;28;20022;-73
2023/07/19 04:13:56;;;;;;;7.53;4.15;;;24.30;69.60;;;;;;5013301;28;20421;-73
2023/07/19 04:16:22;;;;;;;8.23;3.88;;;24.30;69.40;;;;;;5013609;28;20068;-73
2023/07/19 04:18:48;;;;;;;8.77;4.40;;;24.30;69.50;;;;;;5013111;28;20120;-73
2023/07/19 04:21:13;;;;;;;8.25;4.10;;;24.40;69.30;;;;;;5013573;28;20105;-73
2023/07/19 04:23:39;;;;;;;11.63;4.90;;;24.30;69.10;;;;;;5013252;28;20040;-73
2023/07/19 04:26:07;;;;;;;7.75;4.13;;;24.40;69.20;;;;;;5013079;28;20034;-73
2023/07/19 04:28:33;;;;;;;8.05;4.20;;;24.40;69.30;;;;;;5013435;28;20030;-73
2023/07/19 04:30:59;;;;;;;8.45;4.07;;;24.30;69.60;;;;;;4995376;28;20037;-73
2023/07/19 04:33:25;;;;;;;9.90;4.70;;;24.30;70.40;;;;;;4976356;28;20053;-72
2023/07/19 04:35:50;;;;;;;9.57;4.07;;;24.30;70.00;;;;;;4975801;28;20478;-73
2023/07/19 04:38:16;;;;;;;7.53;4.35;;;24.30;70.10;;;;;;4989765;28;20038;-73
2023/07/19 04:40:42;;;;;;;8.20;4.05;;;24.30;70.10;;;;;;5013320;28;20030;-72
2023/07/19 04:43:08;;;;;;;9.90;3.92;;;24.30;70.20;;;;;;5012718;28;20029;-73
2023/07/19 04:45:33;;;;;;;9.32;4.82;;;24.40;70.10;;;;;;5012802;28;20036;-73
2023/07/19 04:47:59;;;;;;;8.43;4.20;;;24.30;70.00;;;;;;5012733;28;20504;-73
2023/07/19 04:50:25;;;;;;;6.63;4.10;;;24.30;70.00;;;;;;5013406;28;20375;-73
2023/07/19 04:52:51;;;;;;;5.63;3.90;;;24.30;70.00;;;;;;5012647;28;20057;-72
2023/07/19 04:55:17;;;;;;;8.38;3.85;;;24.30;69.90;;;;;;5012931;28;20025;-73
2023/07/19 04:57:42;;;;;;;8.02;4.07;;;24.30;69.80;;;;;;5012964;28;20026;-72
2023/07/19 05:00:11;;;;;;;8.32;4.65;;;24.40;69.80;;;;;;5012495;28;20030;-73
2023/07/19 05:02:41;;;;;;;7.43;3.85;;;24.40;69.90;;;;;;5012919;28;20037;-72
2023/07/19 05:05:07;;;;;;;12.15;5.43;;;24.40;69.70;;;;;;4995111;28;20029;-73
2023/07/19 05:07:37;;;;;;;8.30;4.38;;;24.40;69.90;;;;;;5013220;28;20050;-72
2023/07/19 05:10:04;;;;;;;8.13;3.90;;;24.40;69.70;;;;;;5012512;28;20030;-73
2023/07/19 05:12:30;;;;;;;10.95;4.45;;;24.40;69.60;;;;;;5012631;28;20030;-72
2023/07/19 05:14:57;;;;;;;8.98;3.72;;;24.50;69.60;;;;;;5012427;28;20037;-73
2023/07/19 05:17:22;;;;;;;9.85;4.00;;;24.50;69.40;;;;;;5012892;28;20026;-73
2023/07/19 05:19:48;;;;;;;7.25;4.00;;;24.50;69.30;;;;;;5012465;28;20030;-77
2023/07/19 05:22:14;;;;;;;8.73;4.03;;;24.60;69.20;;;;;;5012824;28;20385;-73
2023/07/19 05:24:39;;;;;;;10.02;4.20;;;24.70;69.00;;;;;;5012747;28;20443;-72
2023/07/19 05:27:05;;;;;;;9.00;4.05;;;24.80;68.70;;;;;;5012392;28;20025;-73
2023/07/19 05:29:31;;;;;;;7.85;4.03;;;25.00;68.00;;;;;;5012710;28;20425;-72
2023/07/19 05:31:57;;;;;;;7.82;3.65;;;25.30;67.60;;;;;;5012337;28;20029;-73
2023/07/19 05:34:23;;;;;;;11.43;3.92;;;25.40;67.00;;;;;;5013419;28;20069;-73
2023/07/19 05:36:48;;;;;;;7.50;3.83;;;25.50;66.40;;;;;;5013386;28;20382;-73
2023/07/19 05:39:14;;;;;;;10.30;3.97;;;25.50;66.20;;;;;;5013765;28;20076;-73
2023/07/19 05:41:40;;;;;;;8.40;3.97;;;25.50;65.90;;;;;;5013236;28;20037;-72
2023/07/19 05:44:05;;;;;;;6.72;3.83;;;25.70;65.80;;;;;;5012142;28;20030;-73
2023/07/19 05:46:34;;;;;;;12.73;4.40;;;25.90;65.10;;;;;;5012493;28;20026;-73
2023/07/19 05:48:59;;;;;;;10.68;4.45;;;26.10;64.60;;;;;;4995334;28;20434;-72
2023/07/19 05:51:25;;;;;;;10.82;4.68;;;26.40;63.70;;;;;;5016153;28;20032;-72
2023/07/19 05:53:51;;;;;;;10.65;3.88;;;26.70;62.90;;;;;;5014481;28;20355;-75
2023/07/19 05:56:16;;;;;;;10.50;4.32;;;27.20;62.50;;;;;;4998534;28;20037;-73
2023/07/19 05:58:42;;;;;;;7.68;4.35;;;27.70;61.10;;;;;;5011406;28;20056;-73
2023/07/19 06:01:09;;;;;;;9.68;3.85;;;28.30;59.60;;;;;;5015661;28;20084;-72
2023/07/19 06:03:36;;;;;;;7.53;3.90;;;28.90;57.60;;;;;;5016035;28;20029;-72
2023/07/19 06:06:05;;;;;;;8.43;4.00;;;29.50;56.30;;;;;;5015576;28;20360;-73
2023/07/19 06:08:32;;;;;;;12.00;4.27;;;30.10;55.60;;;;;;5015839;28;20040;-72
2023/07/19 06:10:58;;;;;;;14.50;3.70;;;30.20;54.20;;;;;;5015375;28;20341;-72
2023/07/19 06:13:24;;;;;;;7.25;3.70;;;30.40;53.90;;;;;;5015616;28;20018;-72
2023/07/19 06:15:50;;;;;;;6.47;3.60;;;30.70;53.50;;;;;;5015476;28;20026;-72
2023/07/19 06:18:15;;;;;;;8.25;3.75;;;31.00;52.60;;;;;;5015173;28;20454;-73
2023/07/19 06:20:41;;;;;;;7.20;3.75;;;31.60;51.30;;;;;;5015636;28;20038;-72
2023/07/19 06:23:07;;;;;;;4.95;3.22;;;32.00;50.60;;;;;;5015292;28;20026;-73
2023/07/19 06:25:32;;;;;;;9.10;3.70;;;32.20;50.00;;;;;;5015410;28;20029;-73
2023/07/19 06:27:59;;;;;;;16.15;4.05;;;32.40;49.30;;;;;;5015216;28;20022;-72
2023/07/19 06:30:24;;;;;;;8.02;3.78;;;32.70;48.90;;;;;;5015576;28;20022;-72
2023/07/19 06:32:50;;;;;;;5.63;3.83;;;32.80;48.20;;;;;;5015183;28;20075;-72
2023/07/19 06:35:16;;;;;;;7.53;3.30;;;32.80;47.90;;;;;;5015006;28;20064;-73
2023/07/19 06:37:43;;;;;;;8.05;3.78;;;32.80;48.10;;;;;;4983669;28;20462;-73
2023/07/19 06:40:09;;;;;;;10.15;3.70;;;33.00;48.80;;;;;;4995299;28;20038;-72
2023/07/19 06:42:35;;;;;;;7.20;3.17;;;33.80;47.20;;;;;;4995682;28;20041;-73
2023/07/19 06:45:01;;;;;;;7.68;3.85;;;34.00;45.80;;;;;;4995183;28;20038;-74
2023/07/19 06:47:28;;;;;;;8.13;3.60;;;34.00;45.50;;;;;;4995669;28;20030;-73
2023/07/19 06:49:54;;;;;;;6.40;4.28;;;33.90;45.20;;;;;;4995507;28;20072;-73
2023/07/19 06:52:20;;;;;;;8.15;3.50;;;33.90;44.80;;;;;;4995579;28;20417;-73
2023/07/19 06:54:45;;;;;;;7.97;3.95;;;33.50;45.50;;;;;;4995154;28;20027;-72
2023/07/19 06:57:11;;;;;;;4.78;3.00;;;33.30;45.10;;;;;;4994681;28;20099;-72
2023/07/19 06:59:36;;;;;;;5.75;3.60;;;33.50;45.60;;;;;;4994472;28;20034;-72
2023/07/19 07:02:02;;;;;;;9.85;3.75;;;34.00;44.40;;;;;;4994818;28;20037;-72
2023/07/19 07:04:28;;;;;;;6.85;3.92;;;34.00;44.10;;;;;;4995112;28;20041;-72
2023/07/19 07:06:54;;;;;;;9.30;3.83;;;34.20;43.90;;;;;;4993481;28;20046;-72
2023/07/19 07:09:19;;;;;;;7.75;4.03;;;34.50;42.80;;;;;;4994715;28;20374;-72
2023/07/19 07:11:45;;;;;;;7.90;3.67;;;34.70;42.70;;;;;;4994813;28;20053;-72
2023/07/19 07:14:10;;;;;;;6.82;3.47;;;35.10;42.60;;;;;;4994658;28;20027;-72
2023/07/19 07:16:36;;;;;;;7.65;4.10;;;35.50;41.70;;;;;;4995130;28;20054;-72
2023/07/19 07:19:02;;;;;;;8.63;3.63;;;35.70;41.20;;;;;;4994493;28;20037;-72
2023/07/19 07:21:28;;;;;;;6.45;3.20;;;35.70;41.50;;;;;;4994829;28;20073;-72
2023/07/19 07:23:53;;;;;;;6.90;3.50;;;35.90;41.10;;;;;;4994704;28;20486;-73
2023/07/19 07:26:19;;;;;;;7.65;3.22;;;36.30;40.60;;;;;;4995282;28;20419;-72
2023/07/19 07:28:45;;;;;;;4.20;3.38;;;36.90;39.70;;;;;;4996361;28;20031;-73
2023/07/19 07:31:11;;;;;;;5.25;3.20;;;37.10;40.10;;;;;;4996487;28;20023;-73
2023/07/19 07:33:38;;;;;;;4.95;3.30;;;37.60;38.10;;;;;;4995757;28;20030;-73
2023/07/19 07:36:04;;;;;;;5.05;3.20;;;37.00;38.20;;;;;;4994280;28;20145;-73
2023/07/19 07:38:29;;;;;;;5.78;3.17;;;36.40;37.80;;;;;;4994552;28;20522;-73
2023/07/19 07:41:01;;;;;;;6.47;3.08;;;35.60;38.40;;;;;;4994583;28;20058;-72
2023/07/19 07:43:29;;;;;;;10.57;3.25;;;35.00;39.40;;;;;;4994611;28;20030;-72
2023/07/19 07:45:55;;;;;;;5.53;3.28;;;34.80;39.80;;;;;;4994809;28;20034;-71
2023/07/19 07:48:24;;;;;;;8.05;3.28;;;34.40;40.20;;;;;;4993810;28;20034;-72
2023/07/19 07:50:53;;;;;;;5.45;3.30;;;34.00;40.00;;;;;;4977161;28;20034;-72
2023/07/19 07:53:19;;;;;;;7.72;3.55;;;33.40;39.70;;;;;;4993986;28;20264;-73
2023/07/19 07:55:45;;;;;;;4.28;2.80;;;33.30;40.40;;;;;;4994568;28;20422;-72
2023/07/19 07:58:11;;;;;;;9.18;3.25;;;33.30;39.90;;;;;;4993412;28;20030;-72
2023/07/19 08:00:37;;;;;;;6.22;3.42;;;32.90;40.00;;;;;;4996731;28;20034;-72
2023/07/19 08:03:03;;;;;;;3.97;3.45;;;33.00;40.90;;;;;;4993701;28;20030;-73
2023/07/19 08:05:29;;;;;;;6.22;3.38;;;32.90;40.80;;;;;;4993911;28;20034;-73
2023/07/19 08:07:55;;;;;;;7.85;3.60;;;32.80;41.30;;;;;;4994171;28;20022;-72
2023/07/19 08:10:20;;;;;;;5.22;3.15;;;32.40;40.90;;;;;;4993645;28;20292;-71
2023/07/19 08:12:46;;;;;;;4.72;3.03;;;32.30;42.20;;;;;;4992899;28;20030;-74
2023/07/19 08:15:12;;;;;;;5.85;3.40;;;32.00;42.70;;;;;;4993458;28;20054;-71
2023/07/19 08:17:39;;;;;;;9.23;3.22;;;31.80;42.80;;;;;;4993830;28;20120;-72
2023/07/19 08:20:09;;;;;;;8.48;3.25;;;31.50;43.60;;;;;;4993339;28;20026;-72
2023/07/19 08:22:36;;;;;;;7.13;3.35;;;31.60;43.20;;;;;;4993893;28;20105;-72
2023/07/19 08:25:02;;;;;;;6.10;3.47;;;31.60;43.10;;;;;;4993770;28;20055;-77
2023/07/19 08:27:27;;;;;;;6.95;3.90;;;32.00;43.10;;;;;;4993763;28;20032;-73
2023/07/19 08:29:53;;;;;;;4.60;3.03;;;32.30;41.60;;;;;;4994007;28;20117;-73
2023/07/19 08:32:19;;;;;;;4.55;2.75;;;32.50;41.30;;;;;;4993168;28;20348;-73
2023/07/19 08:34:45;;;;;;;8.02;3.22;;;32.70;41.60;;;;;;4976164;28;20072;-73
2023/07/19 08:37:11;;;;;;;8.57;3.83;;;32.80;41.10;;;;;;4993198;28;20360;-73
2023/07/19 08:39:37;;;;;;;5.10;3.05;;;33.00;40.80;;;;;;4993191;28;20035;-72
2023/07/19 08:42:03;;;;;;;4.40;2.97;;;33.10;40.70;;;;;;4993352;28;20030;-73
2023/07/19 08:44:29;;;;;;;5.88;3.40;;;33.00;40.20;;;;;;4976189;28;20033;-72
2023/07/19 08:46:55;;;;;;;5.20;3.00;;;32.90;40.70;;;;;;4996498;28;20390;-71
2023/07/19 08:49:21;;;;;;;5.22;3.03;;;33.00;40.60;;;;;;5012411;28;20034;-71
2023/07/19 08:51:47;;;;;;;6.50;3.97;;;32.80;41.20;;;;;;5012886;28;20034;-72
2023/07/19 08:54:13;;;;;;;7.50;3.40;;;32.80;41.10;;;;;;5012545;28;20029;-74
2023/07/19 08:56:42;;;;;;;8.15;3.28;;;32.70;41.50;;;;;;5012849;28;20033;-72
2023/07/19 08:59:08;;;;;;;6.55;3.83;;;32.60;41.60;;;;;;5012056;28;20089;-72
2023/07/19 09:01:34;;;;;;;9.02;3.28;;;32.70;41.60;;;;;;5012602;28;20037;-72
2023/07/19 09:04:01;;;;;;;5.30;3.22;;;32.50;42.00;;;;;;5012843;28;20022;-72
2023/07/19 09:06:30;;;;;;;3.35;2.97;;;32.50;41.20;;;;;;5012043;28;20046;-73
2023/07/19 09:08:57;;;;;;;13.85;3.10;;;32.60;41.30;;;;;;5011354;28;20038;-72
2023/07/19 09:11:23;;;;;;;4.53;3.03;;;32.60;41.00;;;;;;5012474;28;20060;-73
2023/07/19 09:13:58;;;;;;;6.88;3.28;;;32.50;41.40;;;;;;4995419;28;20155;-73
2023/07/19 09:16:28;;;;;;;4.95;3.28;;;32.50;41.70;;;;;;5012262;28;20060;-73
2023/07/19 09:18:56;;;;;;;5.20;3.25;;;32.30;41.60;;;;;;5012454;28;20026;-73
2023/07/19 09:21:42;;;;;;;6.78;3.50;;;31.90;41.50;;;;;;5012105;28;20054;-73
2023/07/19 09:24:10;;;;;;;6.82;3.13;;;31.70;42.60;;;;;;4997565;28;20026;-73
2023/07/19 09:26:56;;;;;;;6.80;3.40;;;31.60;41.70;;;;;;5016672;28;20033;-72
2023/07/19 09:29:23;;;;;;;4.55;3.22;;;31.60;42.50;;;;;;5016211;28;20054;-72
2023/07/19 09:31:53;;;;;;;4.82;3.10;;;31.60;42.60;;;;;;5016569;28;20100;-73
2023/07/19 09:34:26;;;;;;;9.25;3.55;;;31.60;42.20;;;;;;5014936;28;20105;-72
2023/07/19 09:36:53;;;;;;;7.78;2.95;;;31.50;42.70;;;;;;5016360;28;20030;-72
2023/07/19 09:39:19;;;;;;;4.70;3.30;;;31.30;41.80;;;;;;5016038;28;20041;-73
2023/07/19 09:41:45;;;;;;;5.22;2.92;;;31.10;42.20;;;;;;5016591;28;20056;-72
2023/07/19 09:44:13;;;;;;;6.00;3.33;;;31.00;42.80;;;;;;5015997;28;20470;-73
2023/07/19 09:46:39;;;;;;;6.93;3.42;;;30.90;43.20;;;;;;5016289;28;20033;-73
2023/07/19 09:49:05;;;;;;;7.25;3.25;;;30.80;43.90;;;;;;5016105;28;20034;-73
2023/07/19 09:51:31;;;;;;;5.75;3.58;;;30.70;44.40;;;;;;5015750;28;20026;-72
2023/07/19 09:54:00;;;;;;;6.28;3.17;;;30.60;45.00;;;;;;5015792;28;20037;-72
2023/07/19 09:56:26;;;;;;;6.45;3.40;;;30.50;45.50;;;;;;5015417;28;20022;-72
2023/07/19 09:58:53;;;;;;;8.30;4.38;;;30.40;45.90;;;;;;4998476;28;20040;-71
2023/07/19 10:01:20;;;;;;;8.05;3.25;;;30.30;46.20;;;;;;4997834;28;20025;-71
2023/07/19 10:03:45;;;;;;;5.15;3.25;;;30.10;46.50;;;;;;5015913;28;20493;-74
2023/07/19 10:06:14;;;;;;;4.10;3.53;;;30.00;46.70;;;;;;5015050;28;20085;-74
2023/07/19 10:08:39;;;;;;;7.72;3.38;;;29.90;46.50;;;;;;5012502;28;20422;-72
2023/07/19 10:11:05;;;;;;;7.30;3.60;;;29.80;47.00;;;;;;4997901;28;20058;-72
2023/07/19 10:13:32;;;;;;;5.00;3.33;;;29.70;47.40;;;;;;4997736;28;20022;-73
2023/07/19 10:15:58;;;;;;;6.97;3.20;;;29.70;47.30;;;;;;5015716;28;20088;-72
2023/07/19 10:18:24;;;;;;;4.65;3.13;;;29.60;47.50;;;;;;5015201;28;20509;-73
2023/07/19 10:21:00;;;;;;;7.80;3.55;;;29.60;47.60;;;;;;5015159;28;20028;-73
2023/07/19 10:23:26;;;;;;;4.90;3.45;;;29.70;47.50;;;;;;5015097;28;20113;-73
2023/07/19 10:25:52;;;;;;;7.57;3.53;;;29.80;48.00;;;;;;5015417;28;20105;-73
2023/07/19 10:28:30;;;;;;;6.38;3.00;;;29.80;48.40;;;;;;5014692;28;20030;-73
2023/07/19 10:30:57;;;;;;;7.25;3.63;;;30.00;48.30;;;;;;5015304;28;20029;-73
2023/07/19 10:33:28;;;;;;;6.63;3.88;;;30.20;48.10;;;;;;5014873;28;20034;-72
2023/07/19 10:36:03;;;;;;;6.60;3.33;;;30.30;47.80;;;;;;5014382;28;20030;-73
2023/07/19 10:38:30;;;;;;;6.85;3.15;;;30.40;47.40;;;;;;4999294;28;20030;-71
2023/07/19 10:41:00;;;;;;;6.57;3.47;;;30.50;47.30;;;;;;4995360;28;20068;-71
2023/07/19 10:43:27;;;;;;;;;;;30.70;47.60;;;;;;5007260;28;20117;-72
2023/07/19 10:45:53;;;;;;;5.95;3.58;;;30.70;46.80;;;;;;5015127;28;19909;-73
2023/07/19 10:48:23;;;;;;;6.85;2.97;;;30.70;45.90;;;;;;4997011;28;20083;-72
2023/07/19 10:50:50;;;;;;;5.15;3.40;;;30.50;45.90;;;;;;5014986;28;20025;-72
2023/07/19 10:53:16;;;;;;;7.65;3.22;;;30.50;46.50;;;;;;5014322;28;20033;-72
2023/07/19 10:55:42;;;;;;;6.68;3.30;;;30.60;46.80;;;;;;5014827;28;20018;-72
2023/07/19 10:58:08;;;;;;;6.60;3.78;;;30.70;47.00;;;;;;5014774;28;20108;-72
2023/07/19 11:00:37;;;;;;;5.93;3.33;;;30.80;47.00;;;;;;4996643;28;20092;-72
2023/07/19 11:03:04;;;;;;;7.45;3.30;;;31.00;46.30;;;;;;5014819;28;20030;-73
2023/07/19 11:05:29;;;;;;;6.65;3.55;;;31.00;45.80;;;;;;5013975;28;20490;-73
2023/07/19 11:07:55;;;;;;;6.15;3.20;;;30.90;44.20;;;;;;5014711;28;20018;-72
2023/07/19 11:10:21;;;;;;;8.25;3.60;;;31.00;43.60;;;;;;5014286;28;20080;-73
2023/07/19 11:12:47;;;;;;;9.20;3.58;;;31.00;43.20;;;;;;5014569;28;20030;-72
2023/07/19 11:15:13;;;;;;;8.25;3.40;;;30.90;43.60;;;;;;5014338;28;20053;-73
2023/07/19 11:17:39;;;;;;;10.15;3.22;;;30.90;44.30;;;;;;5014569;28;20048;-71
2023/07/19 11:20:08;;;;;;;10.98;3.35;;;30.90;45.10;;;;;;5014354;28;20092;-72
2023/07/19 11:22:33;;;;;;;9.05;3.85;;;30.90;45.60;;;;;;4996676;28;20041;-72
2023/07/19 11:24:59;;;;;;;11.75;3.05;;;30.90;46.30;;;;;;5014720;28;20101;-72
2023/07/19 11:27:35;;;;;;;10.23;3.38;;;31.00;45.80;;;;;;5014036;28;20083;-72
2023/07/19 11:30:01;;;;;;;8.23;3.65;;;31.10;45.80;;;;;;5014760;28;20080;-72
2023/07/19 11:32:27;;;;;;;9.82;3.47;;;31.20;45.80;;;;;;5014649;28;20037;-72
2023/07/19 11:34:56;;;;;;;8.32;3.38;;;31.20;45.40;;;;;;5014986;28;20091;-74
2023/07/19 11:37:28;;;;;;;14.00;3.47;;;31.20;45.30;;;;;;5014077;28;20064;-73
2023/07/19 11:39:58;;;;;;;4.88;3.28;;;31.10;45.30;;;;;;5014192;28;20490;-73
2023/07/19 11:42:46;;;;;;;7.80;3.40;;;31.10;45.70;;;;;;5013806;28;20109;-73
2023/07/19 11:45:20;;;;;;;6.25;3.13;;;31.10;46.30;;;;;;5014068;28;20029;-72
2023/07/19 11:47:49;;;;;;;7.65;3.33;;;31.20;46.30;;;;;;5014263;28;20030;-73
2023/07/19 11:50:15;;;;;;;6.53;3.20;;;31.30;45.20;;;;;;5014107;28;20034;-73
2023/07/19 11:52:49;;;;;;;11.02;3.53;;;31.30;45.70;;;;;;5012326;28;20483;-73
2023/07/19 11:55:16;;;;;;;11.05;3.55;;;31.40;45.10;;;;;;5013657;28;20470;-73
2023/07/19 11:57:42;;;;;;;11.10;2.95;;;31.50;45.00;;;;;;5013418;28;20117;-72
2023/07/19 12:00:10;;;;;;;9.07;3.58;;;31.50;45.20;;;;;;5013649;28;20034;-73
2023/07/19 12:02:36;;;;;;;7.30;3.33;;;31.60;45.50;;;;;;5013370;28;20034;-73
2023/07/19 12:05:04;;;;;;;8.65;3.08;;;31.60;44.60;;;;;;5013685;28;20468;-72
2023/07/19 12:07:30;;;;;;;5.28;3.00;;;31.60;44.90;;;;;;5013341;28;20053;-72
2023/07/19 12:09:56;;;;;;;6.90;3.05;;;31.60;44.60;;;;;;5013515;28;20026;-72
2023/07/19 12:12:22;;;;;;;11.63;2.95;;;31.60;45.00;;;;;;5009936;28;20109;-73
2023/07/19 12:14:48;;;;;;;6.72;3.03;;;31.50;45.00;;;;;;5013529;28;20064;-72
2023/07/19 12:17:13;;;;;;;5.88;2.75;;;31.50;44.60;;;;;;5013238;28;20377;-73
2023/07/19 12:19:39;;;;;;;6.60;3.30;;;31.40;45.20;;;;;;5013009;28;20033;-73
2023/07/19 12:22:04;;;;;;;5.43;2.90;;;31.40;45.30;;;;;;5013745;28;20029;-72
2023/07/19 12:24:30;;;;;;;8.10;3.05;;;31.40;45.40;;;;;;5012953;28;20512;-72
2023/07/19 12:26:56;;;;;;;6.25;3.25;;;31.40;45.10;;;;;;5013750;28;20066;-72
2023/07/19 12:29:21;;;;;;;7.72;3.38;;;31.40;45.70;;;;;;4997010;28;20076;-73
2023/07/19 12:31:47;;;;;;;9.50;3.00;;;31.50;45.60;;;;;;4993831;28;20450;-72
2023/07/19 12:34:13;;;;;;;7.65;3.40;;;31.50;45.60;;;;;;4993736;28;20486;-73
2023/07/19 12:36:38;;;;;;;10.13;3.08;;;31.50;45.30;;;;;;4993074;28;20022;-72
2023/07/19 12:39:04;;;;;;;7.65;3.30;;;31.50;44.70;;;;;;4993648;28;20031;-73
2023/07/19 12:41:30;;;;;;;11.85;4.00;;;31.40;45.10;;;;;;4993138;28;20031;-73